createdAt,value
2022-10-30T00:01:06.098Z,6.50
2022-10-30T00:03:32.860Z,6.68
2022-10-30T00:05:59.588Z,7.07
2022-10-30T00:08:26.397Z,6.72
2022-10-30T00:10:54.095Z,7.18
2022-10-30T00:13:21.781Z,6.68
2022-10-30T00:15:52.096Z,6.78
2022-10-30T00:18:20.543Z,6.97
2022-10-30T00:20:48.474Z,6.60
2022-10-30T00:23:15.639Z,6.85
2022-10-30T00:25:42.410Z,6.82
2022-10-30T00:28:09.205Z,6.90
2022-10-30T00:30:36.629Z,7.25
2022-10-30T00:33:04.580Z,7.30
2022-10-30T00:35:32.044Z,7.32
2022-10-30T00:38:01.360Z,7.25
2022-10-30T00:40:28.778Z,7.50
2022-10-30T00:42:55.596Z,7.20
2022-10-30T00:45:22.355Z,7.20
2022-10-30T00:48:02.543Z,7.55
2022-10-30T00:50:36.929Z,7.10
2022-10-30T00:53:18.463Z,6.90
2022-10-30T00:55:56.022Z,7.25
2022-10-30T00:58:36.258Z,6.45
2022-10-30T01:01:11.519Z,7.60
2022-10-30T01:03:40.855Z,6.50
2022-10-30T01:06:13.375Z,6.82
2022-10-30T01:08:41.033Z,6.82
2022-10-30T01:11:09.494Z,6.75
2022-10-30T01:13:39.816Z,7.05
2022-10-30T01:16:41.499Z,7.03
2022-10-30T01:19:44.405Z,7.07
2022-10-30T01:22:35.925Z,7.28
2022-10-30T01:25:32.299Z,6.93
2022-10-30T01:28:55.449Z,6.72
2022-10-30T01:31:37.391Z,6.60
2022-10-30T01:34:23.081Z,6.55
2022-10-30T01:37:03.773Z,6.45
2022-10-30T01:39:39.752Z,7.50
2022-10-30T01:42:47.731Z,6.35
2022-10-30T01:45:24.089Z,7.28
2022-10-30T01:48:15.308Z,7.03
2022-10-30T01:51:19.862Z,6.60
2022-10-30T01:53:56.178Z,6.72
2022-10-30T01:56:59.184Z,6.60
2022-10-30T01:59:48.019Z,7.03
2022-10-30T02:02:14.985Z,7.15
2022-10-30T02:04:43.737Z,7.30
2022-10-30T02:07:12.053Z,7.20
2022-10-30T02:09:45.550Z,7.60
2022-10-30T02:12:15.515Z,7.18
2022-10-30T02:14:49.863Z,6.97
2022-10-30T02:17:17.804Z,7.03
2022-10-30T02:19:44.908Z,7.38
2022-10-30T02:22:12.387Z,7.80
2022-10-30T02:24:39.326Z,7.43
2022-10-30T02:27:07.145Z,6.97
2022-10-30T02:29:33.901Z,7.20
2022-10-30T02:32:00.664Z,7.43
2022-10-30T02:34:27.653Z,7.95
2022-10-30T02:36:54.451Z,7.05
2022-10-30T02:39:21.505Z,7.53
2022-10-30T02:41:49.007Z,7.53
2022-10-30T02:44:15.945Z,7.72
2022-10-30T02:46:42.785Z,7.40
2022-10-30T02:49:10.128Z,7.70
2022-10-30T02:51:36.984Z,7.55
2022-10-30T02:54:03.970Z,7.35
2022-10-30T02:56:31.279Z,7.18
2022-10-30T02:58:59.701Z,7.82
2022-10-30T03:01:26.560Z,7.63
2022-10-30T03:03:56.530Z,7.80
2022-10-30T03:06:23.374Z,6.65
2022-10-30T03:08:51.023Z,7.10
2022-10-30T03:11:20.042Z,6.90
2022-10-30T03:13:48.568Z,7.55
2022-10-30T03:16:20.956Z,7.88
2022-10-30T03:21:20.112Z,6.93
2022-10-30T03:23:47.046Z,7.18
2022-10-30T03:26:13.947Z,8.13
2022-10-30T03:28:49.759Z,7.03
2022-10-30T03:31:19.164Z,6.70
2022-10-30T03:33:48.340Z,7.30
2022-10-30T03:36:15.860Z,7.00
2022-10-30T03:38:43.432Z,6.88
2022-10-30T03:41:13.778Z,7.78
2022-10-30T03:43:40.635Z,7.03
2022-10-30T03:46:10.444Z,7.15
2022-10-30T03:48:38.537Z,7.43
2022-10-30T03:51:05.749Z,7.90
2022-10-30T03:53:34.958Z,7.30
2022-10-30T03:56:04.855Z,7.65
2022-10-30T03:58:41.885Z,7.20
2022-10-30T04:01:11.752Z,7.35
2022-10-30T04:03:42.434Z,7.78
2022-10-30T04:06:11.680Z,7.72
2022-10-30T04:08:38.578Z,7.20
2022-10-30T04:11:05.646Z,6.75
2022-10-30T04:13:32.736Z,7.07
2022-10-30T04:15:59.448Z,7.38
2022-10-30T04:18:26.740Z,7.82
2022-10-30T04:20:55.715Z,7.05
2022-10-30T04:23:23.244Z,7.60
2022-10-30T04:25:50.281Z,7.40
2022-10-30T04:28:18.516Z,7.15
2022-10-30T04:30:47.442Z,7.90
2022-10-30T04:33:16.541Z,8.85
2022-10-30T04:35:43.637Z,8.05
2022-10-30T04:38:16.612Z,7.75
2022-10-30T04:40:44.484Z,8.27
2022-10-30T04:43:14.445Z,7.72
2022-10-30T04:45:42.998Z,7.75
2022-10-30T04:48:18.961Z,8.40
2022-10-30T04:50:47.458Z,7.43
2022-10-30T04:53:24.342Z,7.28
2022-10-30T04:55:56.990Z,7.90
2022-10-30T04:58:24.023Z,7.97
2022-10-30T05:01:05.168Z,9.00
2022-10-30T05:03:33.454Z,8.07
2022-10-30T05:06:24.876Z,7.18
2022-10-30T05:08:51.811Z,8.02
2022-10-30T05:11:29.561Z,8.23
2022-10-30T05:13:56.560Z,8.63
2022-10-30T05:16:23.423Z,9.23
2022-10-30T05:18:51.717Z,7.97
2022-10-30T05:21:18.480Z,7.53
2022-10-30T05:23:46.563Z,8.05
2022-10-30T05:26:13.387Z,8.10
2022-10-30T05:28:41.525Z,8.10
2022-10-30T05:31:08.891Z,8.90
2022-10-30T05:34:04.594Z,7.95
2022-10-30T05:36:34.297Z,8.20
2022-10-30T05:39:02.951Z,9.35
2022-10-30T05:41:34.365Z,9.30
2022-10-30T05:44:02.394Z,7.95
2022-10-30T05:46:29.443Z,8.15
2022-10-30T05:49:05.655Z,8.57
2022-10-30T05:51:36.613Z,8.40
2022-10-30T05:54:06.771Z,8.50
2022-10-30T05:56:36.988Z,9.23
2022-10-30T05:59:04.471Z,8.35
2022-10-30T06:01:31.335Z,8.35
2022-10-30T06:04:00.861Z,8.35
2022-10-30T06:06:27.690Z,8.15
2022-10-30T06:08:55.216Z,8.35
2022-10-30T06:11:42.137Z,8.55
2022-10-30T06:14:10.677Z,8.18
2022-10-30T06:16:43.034Z,8.80
2022-10-30T06:19:42.068Z,9.05
2022-10-30T06:22:23.933Z,8.63
2022-10-30T06:24:58.009Z,8.80
2022-10-30T06:27:44.975Z,8.77
2022-10-30T06:30:12.769Z,8.80
2022-10-30T06:32:39.736Z,9.30
2022-10-30T06:35:07.112Z,10.25
2022-10-30T06:37:34.547Z,9.13
2022-10-30T06:40:09.910Z,9.18
2022-10-30T06:42:55.902Z,8.80
2022-10-30T06:45:29.938Z,8.88
2022-10-30T06:47:57.184Z,8.75
2022-10-30T06:50:24.515Z,9.07
2022-10-30T06:52:51.776Z,9.98
2022-10-30T06:55:18.933Z,9.85
2022-10-30T06:58:11.592Z,9.48
2022-10-30T07:01:01.395Z,9.27
2022-10-30T07:03:46.654Z,9.07
2022-10-30T07:06:13.550Z,9.63
2022-10-30T07:08:40.358Z,9.60
2022-10-30T07:11:07.248Z,9.93
2022-10-30T07:13:43.769Z,9.57
2022-10-30T07:16:36.928Z,10.05
2022-10-30T07:19:08.074Z,9.90
2022-10-30T07:21:35.004Z,10.02
2022-10-30T07:24:05.921Z,9.90
2022-10-30T07:26:38.047Z,11.25
2022-10-30T07:29:25.206Z,9.63
2022-10-30T07:32:30.357Z,9.90
2022-10-30T07:35:14.905Z,10.48
2022-10-30T07:38:07.645Z,9.98
2022-10-30T07:40:53.456Z,11.02
2022-10-30T07:43:38.500Z,11.00
2022-10-30T07:46:34.097Z,10.20
2022-10-30T07:49:18.380Z,10.48
2022-10-30T07:51:57.507Z,11.48
2022-10-30T07:54:24.641Z,11.75
2022-10-30T07:56:52.377Z,11.13
2022-10-30T07:59:44.877Z,11.18
2022-10-30T08:02:20.676Z,10.82
2022-10-30T08:05:08.378Z,11.25
2022-10-30T08:07:55.376Z,10.35
2022-10-30T08:10:22.476Z,11.25
2022-10-30T08:12:49.456Z,10.70
2022-10-30T08:15:16.469Z,11.55
2022-10-30T08:17:46.349Z,10.95
2022-10-30T08:20:16.221Z,10.80
2022-10-30T08:22:52.549Z,11.15
2022-10-30T08:25:29.528Z,10.63
2022-10-30T08:28:03.015Z,11.48
2022-10-30T08:33:08.153Z,10.75
2022-10-30T08:36:00.812Z,10.80
2022-10-30T08:38:29.427Z,10.70
2022-10-30T08:41:22.236Z,10.63
2022-10-30T08:43:51.887Z,12.05
2022-10-30T08:46:18.781Z,10.35
2022-10-30T08:48:46.239Z,11.73
2022-10-30T08:51:13.208Z,11.15
2022-10-30T08:53:44.686Z,11.02
2022-10-30T08:56:14.367Z,10.77
2022-10-30T08:58:53.464Z,11.15
2022-10-30T09:01:20.527Z,11.10
2022-10-30T09:04:16.298Z,11.07
2022-10-30T09:07:02.005Z,10.85
2022-10-30T09:10:07.517Z,11.50
2022-10-30T09:12:36.580Z,11.30
2022-10-30T09:15:04.418Z,11.40
2022-10-30T09:17:39.565Z,10.77
2022-10-30T09:20:06.676Z,11.80
2022-10-30T09:22:41.651Z,12.07
2022-10-30T09:25:09.253Z,11.48
2022-10-30T09:28:02.266Z,11.68
2022-10-30T09:30:42.312Z,11.30
2022-10-30T09:33:12.103Z,11.23
2022-10-30T09:35:58.756Z,11.50
2022-10-30T09:38:25.529Z,11.40
2022-10-30T09:41:33.630Z,11.15
2022-10-30T09:45:15.085Z,12.10
2022-10-30T09:48:10.735Z,12.32
2022-10-30T09:51:39.047Z,12.38
2022-10-30T09:54:37.085Z,11.73
2022-10-30T09:57:19.301Z,11.52
2022-10-30T10:00:10.579Z,11.75
2022-10-30T10:03:38.603Z,11.38
2022-10-30T10:06:25.990Z,11.30
2022-10-30T10:09:19.923Z,10.98
2022-10-30T10:12:21.250Z,11.27
2022-10-30T10:14:49.306Z,10.57
2022-10-30T10:17:31.324Z,10.15
2022-10-30T10:20:00.887Z,11.38
2022-10-30T10:22:44.012Z,11.90
2022-10-30T10:25:16.988Z,11.35
2022-10-30T10:28:23.311Z,11.10
2022-10-30T10:31:07.878Z,11.25
2022-10-30T10:34:02.852Z,11.05
2022-10-30T10:36:45.908Z,11.02
2022-10-30T10:39:50.610Z,10.00
2022-10-30T10:42:35.863Z,10.00
2022-10-30T10:45:58.535Z,10.32
2022-10-30T10:48:50.294Z,10.10
2022-10-30T10:51:29.258Z,9.75
2022-10-30T10:54:02.345Z,11.38
2022-10-30T10:56:39.808Z,11.65
2022-10-30T10:59:34.584Z,10.40
2022-10-30T11:02:40.494Z,9.77
2022-10-30T11:05:36.271Z,10.60
2022-10-30T11:08:22.717Z,10.25
2022-10-30T11:10:59.796Z,10.20
2022-10-30T11:13:35.943Z,10.50
2022-10-30T11:16:38.565Z,10.15
2022-10-30T11:19:09.687Z,10.20
2022-10-30T11:21:45.608Z,9.95
2022-10-30T11:24:30.513Z,10.63
2022-10-30T11:27:17.615Z,10.88
2022-10-30T11:30:06.055Z,9.90
2022-10-30T11:32:35.004Z,10.00
2022-10-30T11:35:07.918Z,11.18
2022-10-30T11:37:41.362Z,9.82
2022-10-30T11:40:11.306Z,9.68
2022-10-30T11:43:05.036Z,9.85
2022-10-30T11:45:39.530Z,10.90
2022-10-30T11:48:28.452Z,9.73
2022-10-30T11:51:03.713Z,9.30
2022-10-30T11:53:38.588Z,9.65
2022-10-30T11:56:20.870Z,9.68
2022-10-30T11:58:56.044Z,10.32
2022-10-30T12:01:36.741Z,10.20
2022-10-30T12:04:22.222Z,10.95
2022-10-30T12:07:07.797Z,10.57
2022-10-30T12:09:44.354Z,9.90
2022-10-30T12:12:27.910Z,9.95
2022-10-30T12:14:55.456Z,9.23
2022-10-30T12:17:23.140Z,10.10
2022-10-30T12:19:57.379Z,9.20
2022-10-30T12:22:31.932Z,8.13
2022-10-30T12:25:21.020Z,9.20
2022-10-30T12:27:48.337Z,8.32
2022-10-30T12:30:20.736Z,8.43
2022-10-30T12:33:15.473Z,8.43
2022-10-30T12:35:49.075Z,9.15
2022-10-30T12:38:27.258Z,9.10
2022-10-30T12:41:26.032Z,7.95
2022-10-30T12:44:15.307Z,8.10
2022-10-30T12:46:56.669Z,7.47
2022-10-30T12:49:50.381Z,8.10
2022-10-30T12:52:31.170Z,7.00
2022-10-30T12:55:13.365Z,7.57
2022-10-30T12:58:29.485Z,7.72
2022-10-30T13:01:12.397Z,7.60
2022-10-30T13:03:53.233Z,7.90
2022-10-30T13:06:28.630Z,7.53
2022-10-30T13:09:42.052Z,7.63
2022-10-30T13:12:17.066Z,7.45
2022-10-30T13:15:06.449Z,7.18
2022-10-30T13:17:33.258Z,7.53
2022-10-30T13:20:00.293Z,6.82
2022-10-30T13:23:21.044Z,6.43
2022-10-30T13:26:07.983Z,6.93
2022-10-30T13:29:22.050Z,6.97
2022-10-30T13:32:30.872Z,6.82
2022-10-30T13:35:25.064Z,6.32
2022-10-30T13:38:02.370Z,6.65
2022-10-30T13:40:29.623Z,5.90
2022-10-30T13:43:22.958Z,6.00
2022-10-30T13:46:21.345Z,6.00
2022-10-30T13:49:17.852Z,6.00
2022-10-30T13:52:14.362Z,5.28
2022-10-30T13:55:02.437Z,6.50
2022-10-30T13:57:49.532Z,6.07
2022-10-30T14:00:50.700Z,5.70
2022-10-30T14:03:51.178Z,5.85
2022-10-30T14:06:52.993Z,6.53
2022-10-30T14:09:19.658Z,5.80
2022-10-30T14:11:46.571Z,5.80
2022-10-30T14:14:13.203Z,6.28
2022-10-30T14:16:45.468Z,6.63
2022-10-30T14:19:13.902Z,6.07
2022-10-30T14:21:55.223Z,6.78
2022-10-30T14:24:30.578Z,6.10
2022-10-30T14:27:03.525Z,6.00
2022-10-30T14:29:34.720Z,5.78
2022-10-30T14:32:22.420Z,6.00
2022-10-30T14:34:52.408Z,5.40
2022-10-30T14:37:39.051Z,5.88
2022-10-30T14:40:53.755Z,5.43
2022-10-30T14:43:59.085Z,5.60
2022-10-30T14:46:44.212Z,6.70
2022-10-30T14:49:43.506Z,6.47
2022-10-30T14:52:23.064Z,6.45
2022-10-30T14:55:15.574Z,6.07
2022-10-30T14:58:05.691Z,6.15
2022-10-30T15:00:35.450Z,6.85
2022-10-30T15:03:43.631Z,6.78
2022-10-30T15:06:40.603Z,6.80
2022-10-30T15:12:46.987Z,5.53
2022-10-30T15:15:18.721Z,5.55
2022-10-30T15:17:55.030Z,6.20
2022-10-30T15:20:25.654Z,6.00
2022-10-30T15:23:07.478Z,5.93
2022-10-30T15:25:47.616Z,5.28
2022-10-30T15:28:22.511Z,5.45
2022-10-30T15:31:05.963Z,5.50
2022-10-30T15:33:37.813Z,5.35
2022-10-30T15:36:06.062Z,5.70
2022-10-30T15:38:32.868Z,5.78
2022-10-30T15:41:03.196Z,5.00
2022-10-30T15:43:35.528Z,5.18
2022-10-30T15:46:10.183Z,5.15
2022-10-30T15:48:45.635Z,5.13
2022-10-30T15:51:18.934Z,4.85
2022-10-30T15:53:52.706Z,4.50
2022-10-30T15:57:18.035Z,5.57
2022-10-30T15:59:35.227Z,6.00
2022-10-30T16:02:02.300Z,6.28
2022-10-30T16:04:36.532Z,5.90
2022-10-30T16:07:21.983Z,5.47
2022-10-30T16:09:59.903Z,5.07
2022-10-30T16:12:30.468Z,6.00
2022-10-30T16:15:03.663Z,4.65
2022-10-30T16:17:30.465Z,5.57
2022-10-30T16:20:03.415Z,5.05
2022-10-30T16:22:38.027Z,7.07
2022-10-30T16:25:12.874Z,6.50
2022-10-30T16:27:45.548Z,6.38
2022-10-30T16:30:17.047Z,5.93
2022-10-30T16:32:52.787Z,6.22
2022-10-30T16:35:22.723Z,6.47
2022-10-30T16:37:50.766Z,6.63
2022-10-30T16:40:25.902Z,6.22
2022-10-30T16:43:01.598Z,6.05
2022-10-30T16:45:29.090Z,6.32
2022-10-30T16:48:09.208Z,6.50
2022-10-30T16:50:38.670Z,5.70
2022-10-30T16:53:11.314Z,6.47
2022-10-30T16:55:38.709Z,6.65
2022-10-30T16:58:05.624Z,3.83
2022-10-30T17:00:36.368Z,4.88
2022-10-30T17:03:11.579Z,4.05
2022-10-30T17:05:41.292Z,4.25
2022-10-30T17:08:17.168Z,4.15
2022-10-30T17:11:03.450Z,4.22
2022-10-30T17:13:38.414Z,4.05
2022-10-30T17:16:30.186Z,4.10
2022-10-30T17:19:01.042Z,3.50
2022-10-30T17:21:39.452Z,3.53
2022-10-30T17:24:19.113Z,3.38
2022-10-30T17:26:57.277Z,3.47
2022-10-30T17:32:27.040Z,3.08
2022-10-30T17:35:19.329Z,3.63
2022-10-30T17:37:46.468Z,3.20
2022-10-30T17:40:14.479Z,3.47
2022-10-30T17:42:41.854Z,4.40
2022-10-30T17:45:14.372Z,4.05
2022-10-30T17:47:41.195Z,4.03
2022-10-30T17:50:08.364Z,3.60
2022-10-30T17:52:35.498Z,3.38
2022-10-30T17:55:08.045Z,4.03
2022-10-30T17:57:34.795Z,4.25
2022-10-30T18:00:01.551Z,4.68
2022-10-30T18:02:41.296Z,5.30
2022-10-30T18:05:22.520Z,5.60
2022-10-30T18:10:16.979Z,4.80
2022-10-30T18:12:44.995Z,4.72
2022-10-30T18:15:39.253Z,5.45
2022-10-30T18:18:06.707Z,5.53
2022-10-30T18:20:34.005Z,4.63
2022-10-30T18:23:01.362Z,4.88
2022-10-30T18:25:35.023Z,4.88
2022-10-30T18:28:03.042Z,6.22
2022-10-30T18:30:30.446Z,5.97
2022-10-30T18:32:59.461Z,5.40
2022-10-30T18:35:36.154Z,5.45
2022-10-30T18:38:04.258Z,6.07
2022-10-30T18:40:32.701Z,5.05
2022-10-30T18:43:00.447Z,5.28
2022-10-30T18:45:33.703Z,5.55
2022-10-30T18:48:01.260Z,4.82
2022-10-30T18:50:30.450Z,5.32
2022-10-30T18:52:59.123Z,5.22
2022-10-30T18:55:33.833Z,6.03
2022-10-30T18:58:01.828Z,6.10
2022-10-30T19:00:39.656Z,5.72
2022-10-30T19:03:17.101Z,6.10
2022-10-30T19:05:50.241Z,5.43
2022-10-30T19:08:17.333Z,5.90
2022-10-30T19:10:47.298Z,6.30
2022-10-30T19:13:16.965Z,6.25
2022-10-30T19:15:48.595Z,7.97
2022-10-30T19:18:16.063Z,7.60
2022-10-30T19:21:03.172Z,7.57
2022-10-30T19:23:30.215Z,7.85
2022-10-30T19:25:57.115Z,9.25
2022-10-30T19:28:24.070Z,8.00
2022-10-30T19:30:50.788Z,7.65
2022-10-30T19:33:20.177Z,6.32
2022-10-30T19:36:26.974Z,6.47
2022-10-30T19:38:54.234Z,7.03
2022-10-30T19:41:21.218Z,7.05
2022-10-30T19:43:48.117Z,6.65
2022-10-30T19:46:15.361Z,6.53
2022-10-30T19:48:59.295Z,6.15
2022-10-30T19:51:28.335Z,6.18
2022-10-30T19:53:55.307Z,5.70
2022-10-30T19:56:22.568Z,6.00
2022-10-30T19:58:49.634Z,6.18
2022-10-30T20:01:17.096Z,5.90
2022-10-30T20:03:44.208Z,6.03
2022-10-30T20:06:13.377Z,6.55
2022-10-30T20:08:40.399Z,6.22
2022-10-30T20:11:07.151Z,6.50
2022-10-30T20:13:34.164Z,6.68
2022-10-30T20:16:05.006Z,5.95
2022-10-30T20:18:35.621Z,6.22
2022-10-30T20:21:08.414Z,6.20
2022-10-30T20:23:35.656Z,6.55
2022-10-30T20:26:07.474Z,6.57
2022-10-30T20:28:42.794Z,6.68
2022-10-30T20:31:12.839Z,6.63
2022-10-30T20:33:39.768Z,7.25
2022-10-30T20:36:06.884Z,6.88
2022-10-30T20:38:34.855Z,6.45
2022-10-30T20:41:04.983Z,6.70
2022-10-30T20:43:39.338Z,7.07
2022-10-30T20:46:09.591Z,6.60
2022-10-30T20:48:37.922Z,8.43
2022-10-30T20:51:06.686Z,8.10
2022-10-30T20:53:34.127Z,8.73
2022-10-30T20:56:01.007Z,7.40
2022-10-30T20:58:28.038Z,7.25
2022-10-30T21:00:58.287Z,7.18
2022-10-30T21:03:27.603Z,7.30
2022-10-30T21:06:01.102Z,7.07
2022-10-30T21:08:31.599Z,6.70
2022-10-30T21:11:03.662Z,6.57
2022-10-30T21:13:32.778Z,7.10
2022-10-30T21:16:07.048Z,6.63
2022-10-30T21:18:33.882Z,7.00
2022-10-30T21:21:08.118Z,7.25
2022-10-30T21:23:35.025Z,7.30
2022-10-30T21:26:06.995Z,7.68
2022-10-30T21:31:07.177Z,8.05
2022-10-30T21:33:36.335Z,7.85
2022-10-30T21:36:12.364Z,8.48
2022-10-30T21:38:42.500Z,8.70
2022-10-30T21:41:16.515Z,8.43
2022-10-30T21:43:43.871Z,7.95
2022-10-30T21:46:12.878Z,8.63
2022-10-30T21:48:40.036Z,8.00
2022-10-30T21:51:15.976Z,7.97
2022-10-30T21:53:44.502Z,7.38
2022-10-30T21:56:15.851Z,7.50
2022-10-30T21:58:42.997Z,7.97
2022-10-30T22:01:26.693Z,8.50
2022-10-30T22:03:53.640Z,7.20
2022-10-30T22:06:22.599Z,7.95
2022-10-30T22:08:53.333Z,7.82
2022-10-30T22:11:22.382Z,8.00
2022-10-30T22:14:04.247Z,7.53
2022-10-30T22:16:34.484Z,7.95
2022-10-30T22:19:01.981Z,7.75
2022-10-30T22:21:29.700Z,8.18
2022-10-30T22:23:58.449Z,8.65
2022-10-30T22:26:25.346Z,8.73
2022-10-30T22:28:57.948Z,9.20
2022-10-30T22:31:27.370Z,8.52
2022-10-30T22:33:54.537Z,9.02
2022-10-30T22:36:32.611Z,8.68
2022-10-30T22:39:07.901Z,9.23
2022-10-30T22:41:37.591Z,9.70
2022-10-30T22:44:12.717Z,9.65
2022-10-30T22:46:39.954Z,9.60
2022-10-30T22:49:07.888Z,9.25
2022-10-30T22:51:37.757Z,10.00
2022-10-30T22:54:12.315Z,9.60
2022-10-30T22:56:40.698Z,10.45
2022-10-30T22:59:12.168Z,9.63
2022-10-30T23:01:41.409Z,9.73
2022-10-30T23:04:11.640Z,10.02
2022-10-30T23:06:38.616Z,10.60
2022-10-30T23:09:09.651Z,10.40
2022-10-30T23:11:36.437Z,10.63
2022-10-30T23:14:03.701Z,10.70
2022-10-30T23:16:30.487Z,11.02
2022-10-30T23:18:59.948Z,10.77
2022-10-30T23:21:30.342Z,10.05
2022-10-30T23:23:58.001Z,11.13
2022-10-30T23:26:29.742Z,10.73
2022-10-30T23:28:59.122Z,11.70
2022-10-30T23:31:27.399Z,12.23
2022-10-30T23:34:02.125Z,11.15
2022-10-30T23:36:29.658Z,12.52
2022-10-30T23:39:02.895Z,11.52
2022-10-30T23:41:34.275Z,11.20
2022-10-30T23:44:05.442Z,12.48
2022-10-30T23:46:34.233Z,12.55
2022-10-30T23:49:02.264Z,13.18
2022-10-30T23:51:29.190Z,11.82
2022-10-30T23:53:56.373Z,12.45
2022-10-30T23:56:23.488Z,11.45
2022-10-30T23:58:52.116Z,12.48
